createdAt,value
2023-04-09T00:01:40.985Z,20.00
2023-04-09T00:04:09.790Z,15.00
2023-04-09T00:06:37.021Z,27.00
2023-04-09T00:09:04.847Z,404.50
2023-04-09T00:11:32.741Z,343.20
2023-04-09T00:14:00.447Z,412.25
2023-04-09T00:16:28.017Z,35.00
2023-04-09T00:18:55.887Z,1180.60
2023-04-09T00:21:24.995Z,181.80
2023-04-09T00:23:51.693Z,269.60
2023-04-09T00:26:18.825Z,411.25
2023-04-09T00:28:46.512Z,68.40
2023-04-09T00:31:14.176Z,162.25
2023-04-09T00:33:42.544Z,56.80
2023-04-09T00:36:09.632Z,64.60
2023-04-09T00:38:39.518Z,462.40
2023-04-09T00:41:07.574Z,429.60
2023-04-09T00:43:35.293Z,48.00
2023-04-09T00:46:03.654Z,244.75
2023-04-09T00:48:31.332Z,578.60
2023-04-09T00:50:59.260Z,456.40
2023-04-09T00:53:26.154Z,426.20
2023-04-09T00:55:56.069Z,51.40
2023-04-09T00:58:23.483Z,952.40
2023-04-09T01:00:52.235Z,81.00
2023-04-09T01:03:22.067Z,73.75
2023-04-09T01:06:01.053Z,1105.50
2023-04-09T01:08:38.395Z,151.20
2023-04-09T01:11:20.900Z,73.40
2023-04-09T01:13:54.081Z,825.50
2023-04-09T01:16:24.535Z,64.40
2023-04-09T01:18:58.694Z,667.80
2023-04-09T01:21:30.861Z,36.75
2023-04-09T01:24:10.549Z,43.25
2023-04-09T01:26:54.444Z,353.80
2023-04-09T01:29:25.259Z,47.00
2023-04-09T01:31:55.572Z,276.00
2023-04-09T01:34:23.137Z,589.80
2023-04-09T01:36:55.024Z,536.75
2023-04-09T01:39:24.358Z,56.50
2023-04-09T01:41:53.058Z,56.00
2023-04-09T01:44:24.303Z,136.00
2023-04-09T01:46:53.304Z,2221.60
2023-04-09T01:49:20.720Z,1214.60
2023-04-09T01:51:49.429Z,2735.75
2023-04-09T01:54:17.348Z,68.00
2023-04-09T01:56:46.861Z,2705.40
2023-04-09T01:59:15.959Z,2066.75
2023-04-09T02:01:48.957Z,1014.75
2023-04-09T02:04:23.467Z,74.80
2023-04-09T02:06:58.887Z,3177.75
2023-04-09T02:09:30.055Z,1704.25
2023-04-09T02:12:02.934Z,771.60
2023-04-09T02:14:32.993Z,3470.40
2023-04-09T02:17:02.322Z,1838.40
2023-04-09T02:19:40.478Z,2619.00
2023-04-09T02:22:07.941Z,2069.00
2023-04-09T02:24:35.232Z,3562.00
2023-04-09T02:27:02.657Z,2553.00
2023-04-09T02:29:31.758Z,1226.60
2023-04-09T02:31:59.784Z,2351.80
2023-04-09T02:34:29.199Z,647.75
2023-04-09T02:36:56.920Z,148.20
2023-04-09T02:39:24.792Z,2202.00
2023-04-09T02:41:52.619Z,148.20
2023-04-09T02:44:21.647Z,59.40
2023-04-09T02:46:49.450Z,63.50
2023-04-09T02:49:16.909Z,68.60
2023-04-09T02:51:45.400Z,466.00
2023-04-09T02:54:13.602Z,441.00
2023-04-09T02:56:40.955Z,248.50
2023-04-09T02:59:08.631Z,70.25
2023-04-09T03:01:36.716Z,1574.00
2023-04-09T03:04:04.500Z,822.00
2023-04-09T03:06:32.423Z,2834.20
2023-04-09T03:09:01.754Z,43.60
2023-04-09T03:11:29.033Z,1975.40
2023-04-09T03:13:56.882Z,3242.50
2023-04-09T03:16:25.326Z,80.25
2023-04-09T03:18:52.939Z,1599.80
2023-04-09T03:21:20.777Z,2225.75
2023-04-09T03:23:48.406Z,73.60
2023-04-09T03:26:16.795Z,101.80
2023-04-09T03:28:44.392Z,1200.20
2023-04-09T03:31:12.194Z,532.80
2023-04-09T03:33:40.653Z,3437.75
2023-04-09T03:36:08.334Z,3844.00
2023-04-09T03:38:35.657Z,3618.25
2023-04-09T03:41:03.425Z,705.20
2023-04-09T03:43:33.680Z,92.20
2023-04-09T03:46:00.938Z,87.40
2023-04-09T03:48:28.337Z,3427.00
2023-04-09T03:50:56.055Z,3391.50
2023-04-09T03:53:23.776Z,2052.00
2023-04-09T03:55:50.470Z,449.80
2023-04-09T03:58:17.876Z,826.25
2023-04-09T04:00:46.878Z,2388.75
2023-04-09T04:03:14.640Z,900.60
2023-04-09T04:05:42.248Z,680.40
2023-04-09T04:08:09.228Z,71.00
2023-04-09T04:10:36.333Z,1300.00
2023-04-09T04:13:03.973Z,833.80
2023-04-09T04:15:31.632Z,79.60
2023-04-09T04:18:00.691Z,1314.40
2023-04-09T04:20:28.644Z,145.40
2023-04-09T04:22:56.293Z,1823.20
2023-04-09T04:25:25.351Z,597.60
2023-04-09T04:27:53.344Z,2685.25
2023-04-09T04:30:21.085Z,300.40
2023-04-09T04:32:48.913Z,278.80
2023-04-09T04:35:19.062Z,1983.25
2023-04-09T04:37:49.648Z,1436.00
2023-04-09T04:40:16.926Z,1221.80
2023-04-09T04:42:44.416Z,1853.25
2023-04-09T04:45:11.835Z,2986.75
2023-04-09T04:47:39.650Z,2610.25
2023-04-09T04:50:08.772Z,2946.25
2023-04-09T04:52:37.531Z,2464.75
2023-04-09T04:55:05.638Z,1217.20
2023-04-09T04:57:32.411Z,2600.25
2023-04-09T04:59:59.999Z,1996.75
2023-04-09T05:02:27.220Z,2003.25
2023-04-09T05:04:54.961Z,1804.75
2023-04-09T05:07:22.719Z,1904.75
2023-04-09T05:09:52.553Z,3006.25
2023-04-09T05:12:20.464Z,1703.25
2023-04-09T05:14:47.907Z,2371.80
2023-04-09T05:17:15.402Z,2081.00
2023-04-09T05:19:43.033Z,3414.00
2023-04-09T05:22:10.479Z,2829.25
2023-04-09T05:24:38.240Z,2123.25
2023-04-09T05:27:07.203Z,2806.75
2023-04-09T05:29:34.644Z,3002.75
2023-04-09T05:32:01.915Z,1916.25
2023-04-09T05:34:29.812Z,2438.33
2023-04-09T05:36:57.034Z,3832.25
2023-04-09T05:39:24.766Z,1626.50
2023-04-09T05:41:52.446Z,3088.50
2023-04-09T05:44:21.373Z,3579.25
2023-04-09T05:46:48.676Z,3569.50
2023-04-09T05:49:16.295Z,3579.20
2023-04-09T05:51:43.985Z,3307.00
2023-04-09T05:54:11.466Z,2731.50
2023-04-09T05:56:38.408Z,3271.40
2023-04-09T05:59:06.134Z,3391.40
2023-04-09T06:01:35.598Z,2605.00
2023-04-09T06:04:03.594Z,3287.80
2023-04-09T06:06:31.109Z,3941.25
2023-04-09T06:08:58.899Z,4059.25
2023-04-09T06:11:26.937Z,3006.00
2023-04-09T06:13:54.255Z,2925.00
2023-04-09T06:16:21.758Z,3653.50
2023-04-09T06:18:50.761Z,3877.25
2023-04-09T06:21:18.009Z,3303.75
2023-04-09T06:23:45.691Z,3158.00
2023-04-09T06:26:12.687Z,3997.25
2023-04-09T06:28:40.296Z,3941.25
2023-04-09T06:31:08.286Z,3535.75
2023-04-09T06:33:36.042Z,3555.60
2023-04-09T06:36:05.302Z,3938.50
2023-04-09T06:38:32.661Z,3357.75
2023-04-09T06:41:00.092Z,3388.50
2023-04-09T06:43:27.608Z,2815.50
2023-04-09T06:45:55.246Z,3093.40
2023-04-09T06:48:23.330Z,1596.00
2023-04-09T06:50:51.078Z,3476.50
2023-04-09T06:53:19.337Z,3835.80
2023-04-09T06:55:48.246Z,3938.40
2023-04-09T06:58:16.225Z,3486.50
2023-04-09T07:00:43.417Z,3730.75
2023-04-09T07:03:11.473Z,2932.75
2023-04-09T07:05:39.005Z,3943.25
2023-04-09T07:08:06.146Z,3918.20
2023-04-09T07:10:35.351Z,3138.50
2023-04-09T07:13:02.600Z,2664.00
2023-04-09T07:15:30.247Z,3345.40
2023-04-09T07:17:58.174Z,1102.00
2023-04-09T07:20:25.596Z,3980.25
2023-04-09T07:22:52.807Z,3520.80
2023-04-09T07:25:20.527Z,3400.60
2023-04-09T07:27:49.902Z,3678.00
2023-04-09T07:30:17.591Z,2782.75
2023-04-09T07:32:45.482Z,3058.00
2023-04-09T07:35:12.811Z,3057.00
2023-04-09T07:37:41.634Z,3329.75
2023-04-09T07:40:09.493Z,3071.50
2023-04-09T07:42:38.381Z,3700.60
2023-04-09T07:45:09.894Z,3880.40
2023-04-09T07:47:38.630Z,3448.20
2023-04-09T07:50:07.158Z,3089.25
2023-04-09T07:52:35.070Z,2025.25
2023-04-09T07:55:02.752Z,1742.40
2023-04-09T07:57:32.009Z,2469.75
2023-04-09T08:00:00.203Z,2954.00
2023-04-09T08:02:28.882Z,1244.80
2023-04-09T08:04:56.035Z,1449.20
2023-04-09T08:07:23.032Z,772.60
2023-04-09T08:09:50.537Z,695.75
2023-04-09T08:12:17.620Z,1152.80
2023-04-09T08:14:46.475Z,1676.00
2023-04-09T08:17:14.581Z,1906.00
2023-04-09T08:19:43.666Z,492.20
2023-04-09T08:22:11.268Z,428.75
2023-04-09T08:24:39.015Z,873.25
2023-04-09T08:27:06.724Z,498.60
2023-04-09T08:29:34.780Z,1590.20
2023-04-09T08:32:02.230Z,329.75
2023-04-09T08:34:29.728Z,56.75
2023-04-09T08:36:59.521Z,68.40
2023-04-09T08:39:26.718Z,63.00
2023-04-09T08:41:59.607Z,62.80
2023-04-09T08:44:27.668Z,317.25
2023-04-09T08:46:55.787Z,782.20
2023-04-09T08:49:26.278Z,885.25
2023-04-09T08:51:54.616Z,1612.50
2023-04-09T08:54:24.334Z,1358.25
2023-04-09T08:56:51.994Z,900.50
2023-04-09T08:59:18.849Z,2128.00
2023-04-09T09:01:45.784Z,1186.75
2023-04-09T09:04:13.545Z,1367.50
2023-04-09T09:06:42.817Z,1604.80
2023-04-09T09:09:11.717Z,2589.25
2023-04-09T09:11:42.606Z,1151.60
2023-04-09T09:14:11.741Z,2566.75
2023-04-09T09:16:41.843Z,1934.50
2023-04-09T09:19:10.676Z,507.00
2023-04-09T09:21:39.611Z,2056.00
2023-04-09T09:24:18.870Z,1459.60
2023-04-09T09:26:49.553Z,1067.00
2023-04-09T09:29:17.461Z,793.00
2023-04-09T09:31:49.258Z,890.75
2023-04-09T09:34:17.139Z,1175.75
2023-04-09T09:36:45.802Z,1534.75
2023-04-09T09:39:13.874Z,1152.50
2023-04-09T09:41:41.692Z,918.00
2023-04-09T09:44:11.922Z,41.50
2023-04-09T09:46:41.359Z,792.00
2023-04-09T09:49:09.380Z,152.00
2023-04-09T09:51:39.423Z,493.00
2023-04-09T09:54:08.596Z,138.75
2023-04-09T09:56:39.716Z,534.50
2023-04-09T09:59:13.174Z,47.80
2023-04-09T10:01:43.569Z,334.25
2023-04-09T10:04:15.469Z,832.20
2023-04-09T10:06:44.706Z,410.25
2023-04-09T10:09:19.796Z,37.80
2023-04-09T10:11:49.402Z,44.67
2023-04-09T10:14:18.753Z,751.50
2023-04-09T10:16:47.092Z,305.50
2023-04-09T10:19:15.766Z,56.00
2023-04-09T10:21:51.994Z,52.50
2023-04-09T10:24:21.068Z,386.50
2023-04-09T10:26:49.774Z,390.00
2023-04-09T10:29:28.983Z,389.25
2023-04-09T10:32:07.524Z,36.00
2023-04-09T10:34:38.384Z,35.67
2023-04-09T10:37:07.812Z,743.60
2023-04-09T10:39:39.014Z,656.75
2023-04-09T10:42:11.757Z,35.00
2023-04-09T10:44:40.905Z,30.50
2023-04-09T10:47:08.833Z,739.20
2023-04-09T10:49:37.270Z,461.00
2023-04-09T10:52:05.612Z,35.50
2023-04-09T10:54:46.741Z,25.00
2023-04-09T10:57:16.679Z,742.40
2023-04-09T10:59:46.721Z,27.40
2023-04-09T11:02:44.615Z,397.40
2023-04-09T11:05:20.409Z,45.50
2023-04-09T11:07:53.331Z,51.25
2023-04-09T11:10:21.024Z,383.80
2023-04-09T11:12:48.582Z,60.00
2023-04-09T11:15:20.664Z,564.25
2023-04-09T11:17:48.715Z,392.50
2023-04-09T11:20:22.083Z,382.50
2023-04-09T11:22:49.850Z,389.40
2023-04-09T11:25:21.685Z,59.25
2023-04-09T11:27:48.856Z,137.25
2023-04-09T11:30:18.225Z,30.80
2023-04-09T11:32:47.754Z,38.00
2023-04-09T11:35:17.670Z,464.60
2023-04-09T11:37:46.418Z,809.50
2023-04-09T11:40:17.979Z,30.00
2023-04-09T11:42:46.486Z,33.25
2023-04-09T11:45:13.777Z,994.50
2023-04-09T11:47:41.536Z,289.00
2023-04-09T11:50:12.778Z,29.75
2023-04-09T11:52:41.683Z,28.50
2023-04-09T11:55:09.910Z,451.75
2023-04-09T11:57:40.934Z,28.50
2023-04-09T12:00:09.951Z,352.50
2023-04-09T12:02:42.614Z,29.00
2023-04-09T12:05:21.932Z,34.00
2023-04-09T12:07:56.385Z,24.75
2023-04-09T12:10:28.487Z,490.33
2023-04-09T12:12:56.296Z,348.75
2023-04-09T12:15:25.317Z,25.50
2023-04-09T12:17:55.941Z,30.25
2023-04-09T12:20:33.811Z,27.25
2023-04-09T12:23:03.040Z,26.25
2023-04-09T12:25:31.790Z,118.75
2023-04-09T12:28:01.493Z,356.50
2023-04-09T12:30:29.109Z,360.33
2023-04-09T12:32:57.323Z,21.00
2023-04-09T12:35:25.834Z,30.75
2023-04-09T12:37:55.901Z,20.00
2023-04-09T12:40:23.107Z,26.25
2023-04-09T12:42:50.231Z,282.25
2023-04-09T12:45:18.858Z,22.00
2023-04-09T12:47:47.170Z,27.40
2023-04-09T12:50:15.882Z,380.60
2023-04-09T12:52:43.933Z,198.25
2023-04-09T12:55:13.806Z,366.50
2023-04-09T12:57:44.896Z,30.00
2023-04-09T13:00:13.191Z,31.50
2023-04-09T13:02:40.722Z,20.00
2023-04-09T13:05:09.068Z,27.75
2023-04-09T13:07:35.974Z,31.25
2023-04-09T13:10:03.378Z,28.00
2023-04-09T13:12:34.094Z,23.33
2023-04-09T13:15:01.661Z,20.75
2023-04-09T13:17:32.546Z,25.50
2023-04-09T13:20:00.288Z,23.00
2023-04-09T13:22:27.792Z,30.25
2023-04-09T13:24:55.440Z,358.67
2023-04-09T13:27:23.573Z,23.25
2023-04-09T13:29:53.159Z,24.00
2023-04-09T13:32:22.120Z,283.75
2023-04-09T13:34:49.040Z,34.00
2023-04-09T13:37:17.161Z,26.00
2023-04-09T13:39:44.233Z,10.67
2023-04-09T13:42:14.393Z,25.67
2023-04-09T13:44:42.318Z,31.25
2023-04-09T13:47:11.436Z,27.50
2023-04-09T13:49:38.702Z,19.75
2023-04-09T13:52:07.116Z,24.75
2023-04-09T13:54:35.674Z,2.75
2023-04-09T13:57:04.023Z,18.75
2023-04-09T13:59:31.903Z,19.00
2023-04-09T14:01:59.391Z,17.00
2023-04-09T14:04:28.807Z,19.00
2023-04-09T14:06:56.283Z,19.75
2023-04-09T14:09:23.702Z,19.00
2023-04-09T14:11:51.480Z,20.00
2023-04-09T14:14:19.513Z,17.75
2023-04-09T14:16:47.613Z,20.75
2023-04-09T14:19:15.443Z,13.00
2023-04-09T14:21:44.221Z,16.75
2023-04-09T14:24:12.032Z,22.00
2023-04-09T14:26:39.774Z,20.00
2023-04-09T14:29:07.113Z,22.33
2023-04-09T14:31:34.391Z,18.50
2023-04-09T14:34:01.537Z,29.00
2023-04-09T14:36:28.607Z,18.67
2023-04-09T14:38:59.488Z,21.50
2023-04-09T14:41:27.565Z,23.33
2023-04-09T14:43:55.039Z,23.00
2023-04-09T14:46:22.717Z,22.50
2023-04-09T14:48:50.610Z,25.50
2023-04-09T14:51:18.126Z,3.75
2023-04-09T14:53:49.911Z,21.00
2023-04-09T14:56:19.316Z,107.75
2023-04-09T14:58:46.598Z,19.00
2023-04-09T15:01:15.360Z,11.00
2023-04-09T15:03:43.129Z,19.50
2023-04-09T15:06:12.664Z,269.00
2023-04-09T15:08:40.570Z,20.00
2023-04-09T15:11:09.148Z,21.25
2023-04-09T15:13:38.197Z,371.50
2023-04-09T15:16:06.344Z,24.25
2023-04-09T15:18:34.722Z,25.75
2023-04-09T15:21:02.150Z,27.00
2023-04-09T15:23:30.145Z,29.25
2023-04-09T15:25:56.965Z,33.75
2023-04-09T15:28:24.360Z,29.50
2023-04-09T15:30:55.501Z,29.50
2023-04-09T15:33:23.872Z,24.00
2023-04-09T15:35:51.566Z,24.33
2023-04-09T15:38:18.897Z,23.00
2023-04-09T15:40:46.473Z,17.00
2023-04-09T15:43:13.913Z,23.67
2023-04-09T15:45:41.512Z,362.75
2023-04-09T15:48:11.005Z,21.50
2023-04-09T15:50:38.656Z,22.25
2023-04-09T15:53:05.798Z,24.50
2023-04-09T15:55:33.572Z,23.67
2023-04-09T15:58:01.019Z,16.75
2023-04-09T16:00:28.840Z,20.00
2023-04-09T16:02:56.871Z,31.33
2023-04-09T16:05:26.763Z,21.33
2023-04-09T16:07:54.359Z,22.67
2023-04-09T16:10:23.136Z,23.00
2023-04-09T16:12:50.348Z,26.00
2023-04-09T16:15:17.455Z,29.00
2023-04-09T16:17:44.896Z,24.00
2023-04-09T16:20:13.571Z,22.25
2023-04-09T16:22:48.598Z,19.33
2023-04-09T16:25:16.216Z,17.33
2023-04-09T16:27:43.658Z,23.33
2023-04-09T16:30:12.532Z,22.67
2023-04-09T16:32:40.101Z,22.50
2023-04-09T16:35:07.952Z,23.33
2023-04-09T16:37:35.616Z,24.00
2023-04-09T16:40:07.244Z,26.50
2023-04-09T16:42:34.881Z,27.75
2023-04-09T16:45:02.309Z,31.25
2023-04-09T16:47:29.977Z,28.25
2023-04-09T16:49:57.401Z,35.75
2023-04-09T16:52:25.052Z,36.50
2023-04-09T16:54:52.598Z,35.25
2023-04-09T16:57:21.883Z,53.75
2023-04-09T16:59:51.425Z,62.33
2023-04-09T17:02:19.772Z,34.00
2023-04-09T17:04:47.531Z,62.00
2023-04-09T17:07:14.850Z,47.00
2023-04-09T17:09:41.971Z,401.75
2023-04-09T17:12:09.823Z,50.80
2023-04-09T17:14:39.004Z,83.00
2023-04-09T17:17:06.671Z,65.80
2023-04-09T17:19:34.614Z,408.20
2023-04-09T17:22:02.268Z,65.75
2023-04-09T17:24:29.777Z,84.50
2023-04-09T17:26:57.690Z,743.60
2023-04-09T17:29:25.546Z,393.50
2023-04-09T17:31:55.460Z,133.60
2023-04-09T17:34:23.155Z,60.25
2023-04-09T17:36:51.474Z,80.20
2023-04-09T17:39:19.237Z,70.67
2023-04-09T17:41:47.402Z,35.67
2023-04-09T17:44:15.580Z,36.67
2023-04-09T17:46:43.357Z,32.00
2023-04-09T17:49:12.717Z,371.75
2023-04-09T17:51:40.094Z,20.00
2023-04-09T17:54:07.759Z,17.00
2023-04-09T17:56:34.609Z,722.25
2023-04-09T17:59:01.732Z,14.00
2023-04-09T18:01:29.900Z,28.00
2023-04-09T18:03:57.469Z,193.50
2023-04-09T18:06:27.261Z,15.00
2023-04-09T18:08:54.262Z,359.75
2023-04-09T18:11:21.510Z,18.75
2023-04-09T18:13:49.716Z,23.25
2023-04-09T18:16:17.361Z,25.00
2023-04-09T18:18:45.256Z,370.00
2023-04-09T18:21:13.168Z,376.00
2023-04-09T18:23:41.766Z,25.75
2023-04-09T18:26:08.628Z,30.25
2023-04-09T18:28:36.929Z,29.75
2023-04-09T18:31:04.964Z,29.25
2023-04-09T18:33:31.818Z,28.00
2023-04-09T18:36:01.338Z,26.50
2023-04-09T18:38:29.087Z,208.50
2023-04-09T18:40:59.445Z,27.50
2023-04-09T18:43:30.070Z,27.00
2023-04-09T18:45:57.408Z,27.75
2023-04-09T18:48:24.730Z,34.75
2023-04-09T18:50:52.392Z,384.50
2023-04-09T18:53:21.286Z,36.50
2023-04-09T18:55:48.962Z,558.25
2023-04-09T18:58:18.435Z,37.33
2023-04-09T19:00:45.462Z,39.67
2023-04-09T19:03:13.419Z,39.00
2023-04-09T19:05:41.368Z,381.75
2023-04-09T19:08:08.828Z,34.33
2023-04-09T19:10:36.363Z,35.33
2023-04-09T19:13:04.765Z,37.00
2023-04-09T19:15:34.028Z,38.33
2023-04-09T19:18:01.501Z,273.67
2023-04-09T19:20:29.155Z,36.00
2023-04-09T19:22:56.619Z,36.33
2023-04-09T19:25:24.088Z,386.75
2023-04-09T19:27:51.630Z,32.75
2023-04-09T19:30:19.525Z,32.00
2023-04-09T19:32:50.461Z,34.50
2023-04-09T19:35:18.200Z,37.00
2023-04-09T19:37:46.114Z,32.00
2023-04-09T19:40:14.734Z,33.50
2023-04-09T19:42:42.262Z,34.33
2023-04-09T19:45:10.621Z,24.67
2023-04-09T19:47:39.018Z,31.75
2023-04-09T19:50:09.474Z,24.25
2023-04-09T19:52:36.833Z,31.50
2023-04-09T19:55:05.405Z,33.75
2023-04-09T19:57:33.967Z,24.50
2023-04-09T20:00:02.888Z,24.00
2023-04-09T20:02:30.624Z,24.00
2023-04-09T20:04:58.242Z,19.25
2023-04-09T20:07:27.850Z,16.25
2023-04-09T20:09:55.565Z,23.00
2023-04-09T20:12:23.620Z,13.50
2023-04-09T20:14:51.524Z,12.67
2023-04-09T20:17:19.526Z,31.20
2023-04-09T20:19:47.972Z,105.75
2023-04-09T20:22:15.430Z,6.00
2023-04-09T20:24:44.626Z,26.75
2023-04-09T20:27:12.329Z,17.25
2023-04-09T20:29:40.224Z,372.75
2023-04-09T20:32:07.814Z,20.75
2023-04-09T20:34:35.510Z,24.00
2023-04-09T20:37:03.463Z,379.50
2023-04-09T20:39:30.991Z,18.50
2023-04-09T20:41:59.856Z,11.75
2023-04-09T20:44:28.869Z,26.50
2023-04-09T20:46:56.616Z,21.00
2023-04-09T20:49:24.565Z,17.00
2023-04-09T20:51:51.997Z,18.25
2023-04-09T20:54:19.455Z,28.25
2023-04-09T20:56:46.742Z,17.00
2023-04-09T20:59:15.823Z,26.50
2023-04-09T21:01:43.188Z,18.50
2023-04-09T21:04:10.934Z,21.00
2023-04-09T21:06:39.121Z,28.25
2023-04-09T21:09:08.003Z,14.00
2023-04-09T21:11:35.726Z,375.50
2023-04-09T21:14:03.292Z,21.50
2023-04-09T21:16:33.126Z,28.50
2023-04-09T21:19:01.271Z,24.50
2023-04-09T21:21:28.888Z,11.25
2023-04-09T21:23:56.793Z,383.50
2023-04-09T21:26:25.195Z,16.75
2023-04-09T21:28:52.269Z,12.75
2023-04-09T21:31:19.984Z,15.00
2023-04-09T21:33:49.966Z,9.25
2023-04-09T21:36:18.125Z,13.50
2023-04-09T21:38:45.124Z,25.50
2023-04-09T21:41:12.500Z,53.60
2023-04-09T21:43:39.990Z,416.00
2023-04-09T21:46:07.534Z,699.60
2023-04-09T21:48:35.677Z,760.40
2023-04-09T21:51:08.994Z,158.50
2023-04-09T21:53:36.952Z,2157.50
2023-04-09T21:56:05.271Z,678.20
2023-04-09T21:58:34.296Z,949.75
2023-04-09T22:01:02.712Z,597.75
2023-04-09T22:03:29.664Z,1630.80
2023-04-09T22:05:57.074Z,598.25
2023-04-09T22:08:25.319Z,402.25
2023-04-09T22:10:52.499Z,915.80
2023-04-09T22:13:19.800Z,511.25
2023-04-09T22:15:47.993Z,399.75
2023-04-09T22:18:15.669Z,830.20
2023-04-09T22:20:42.428Z,1793.80
2023-04-09T22:23:10.268Z,200.60
2023-04-09T22:25:39.110Z,1136.00
2023-04-09T22:28:06.893Z,1356.40
2023-04-09T22:30:34.269Z,398.20
2023-04-09T22:33:01.940Z,628.00
2023-04-09T22:35:29.386Z,1063.60
2023-04-09T22:37:56.563Z,1217.80
2023-04-09T22:40:24.592Z,1291.20
2023-04-09T22:42:54.316Z,778.75
2023-04-09T22:45:21.621Z,694.00
2023-04-09T22:47:49.693Z,1219.20
2023-04-09T22:50:17.254Z,2449.40
2023-04-09T22:52:45.010Z,780.80
2023-04-09T22:55:12.886Z,2524.20
2023-04-09T22:57:40.337Z,2511.40
2023-04-09T23:00:11.432Z,2004.20
2023-04-09T23:02:39.128Z,1514.60
2023-04-09T23:05:08.192Z,985.40
2023-04-09T23:07:36.123Z,2650.60
2023-04-09T23:10:03.866Z,3129.20
2023-04-09T23:12:31.445Z,3158.40
2023-04-09T23:14:58.717Z,3228.60
2023-04-09T23:17:28.890Z,3214.20
2023-04-09T23:19:56.291Z,3449.00
2023-04-09T23:22:24.065Z,3577.00
2023-04-09T23:24:51.428Z,3425.60
2023-04-09T23:27:19.581Z,3376.60
2023-04-09T23:29:46.977Z,2366.00
2023-04-09T23:32:14.497Z,3542.50
2023-04-09T23:34:43.753Z,2719.00
2023-04-09T23:37:11.483Z,3049.20
2023-04-09T23:39:40.024Z,3750.50
2023-04-09T23:42:08.427Z,3365.25
2023-04-09T23:44:36.988Z,3725.20
2023-04-09T23:47:04.520Z,3717.00
2023-04-09T23:49:32.285Z,3749.80
2023-04-09T23:52:01.329Z,3378.50
2023-04-09T23:54:28.628Z,3373.60
2023-04-09T23:56:56.455Z,2627.80
2023-04-09T23:59:23.724Z,2774.00
